createdAt,value
2023-05-25T00:02:19.932Z,21.69
2023-05-25T00:05:21.980Z,21.68
2023-05-25T00:08:24.092Z,21.70
2023-05-25T00:11:26.852Z,21.70
2023-05-25T00:14:28.929Z,21.70
2023-05-25T00:17:32.249Z,21.71
2023-05-25T00:20:34.774Z,21.65
2023-05-25T00:23:37.012Z,21.56
2023-05-25T00:26:39.174Z,21.44
2023-05-25T00:29:41.436Z,21.38
2023-05-25T00:32:43.620Z,21.41
2023-05-25T00:35:46.908Z,21.43
2023-05-25T00:38:50.938Z,21.43
2023-05-25T00:41:54.835Z,21.42
2023-05-25T00:44:57.799Z,21.35
2023-05-25T00:48:01.356Z,21.38
2023-05-25T00:51:03.809Z,21.27
2023-05-25T00:54:06.326Z,21.27
2023-05-25T00:57:08.555Z,21.29
2023-05-25T01:00:11.637Z,21.28
2023-05-25T01:03:18.103Z,21.34
2023-05-25T01:06:23.024Z,21.33
2023-05-25T01:09:27.896Z,21.41
2023-05-25T01:12:30.695Z,21.46
2023-05-25T01:15:33.673Z,21.51
2023-05-25T01:18:36.219Z,21.54
2023-05-25T01:21:46.124Z,21.61
2023-05-25T01:25:02.477Z,21.60
2023-05-25T01:28:15.591Z,21.62
2023-05-25T01:31:21.556Z,21.62
2023-05-25T01:34:25.091Z,21.61
2023-05-25T01:37:28.089Z,21.61
2023-05-25T01:40:31.945Z,21.63
2023-05-25T01:43:36.375Z,21.65
2023-05-25T01:46:40.004Z,21.65
2023-05-25T01:50:43.535Z,21.66
2023-05-25T01:53:58.980Z,21.68
2023-05-25T01:57:04.919Z,21.65
2023-05-25T02:00:09.631Z,21.67
2023-05-25T02:03:18.108Z,21.67
2023-05-25T02:06:20.355Z,21.64
2023-05-25T02:09:22.491Z,21.60
2023-05-25T02:12:26.392Z,21.53
2023-05-25T02:15:34.156Z,21.47
2023-05-25T02:18:37.437Z,21.43
2023-05-25T02:21:39.454Z,21.32
2023-05-25T02:24:41.604Z,21.27
2023-05-25T02:27:44.368Z,21.35
2023-05-25T02:30:46.551Z,21.43
2023-05-25T02:33:48.661Z,21.43
2023-05-25T02:36:51.050Z,21.38
2023-05-25T02:39:53.434Z,21.44
2023-05-25T02:42:56.089Z,21.48
2023-05-25T02:45:58.121Z,21.46
2023-05-25T02:49:01.060Z,21.58
2023-05-25T02:52:03.214Z,21.57
2023-05-25T02:55:06.194Z,21.52
2023-05-25T02:58:12.520Z,21.42
2023-05-25T03:01:35.187Z,21.33
2023-05-25T03:04:39.106Z,21.38
2023-05-25T03:07:42.181Z,21.47
2023-05-25T03:10:44.540Z,21.55
2023-05-25T03:13:47.124Z,21.61
2023-05-25T03:16:50.974Z,21.61
2023-05-25T03:19:56.807Z,21.60
2023-05-25T03:22:58.936Z,21.51
2023-05-25T03:26:01.109Z,21.48
2023-05-25T03:29:03.566Z,21.50
2023-05-25T03:32:06.179Z,21.54
2023-05-25T03:35:09.917Z,21.63
2023-05-25T03:38:13.319Z,21.65
2023-05-25T03:41:15.368Z,21.53
2023-05-25T03:44:18.034Z,21.47
2023-05-25T03:47:20.217Z,21.51
2023-05-25T03:50:23.433Z,21.58
2023-05-25T03:53:25.462Z,21.63
2023-05-25T03:56:27.749Z,21.66
2023-05-25T03:59:30.161Z,21.59
2023-05-25T04:02:32.497Z,21.60
2023-05-25T04:05:34.624Z,21.61
2023-05-25T04:08:36.821Z,21.66
2023-05-25T04:11:39.964Z,21.66
2023-05-25T04:14:42.867Z,21.70
2023-05-25T04:17:45.059Z,21.67
2023-05-25T04:20:47.487Z,21.71
2023-05-25T04:23:51.133Z,21.76
2023-05-25T04:26:53.491Z,21.78
2023-05-25T04:29:56.207Z,21.83
2023-05-25T04:33:18.022Z,21.76
2023-05-25T04:36:44.903Z,21.81
2023-05-25T04:39:49.869Z,21.78
2023-05-25T04:42:54.140Z,21.80
2023-05-25T04:45:58.018Z,21.84
2023-05-25T04:49:00.263Z,21.83
2023-05-25T04:52:02.467Z,21.84
2023-05-25T04:55:06.765Z,21.82
2023-05-25T04:58:14.696Z,21.70
2023-05-25T05:01:17.699Z,21.69
2023-05-25T05:04:20.007Z,21.80
2023-05-25T05:07:23.477Z,21.92
2023-05-25T05:10:26.103Z,21.88
2023-05-25T05:13:32.139Z,21.93
2023-05-25T05:16:35.335Z,21.96
2023-05-25T05:19:37.888Z,21.89
2023-05-25T05:22:43.917Z,21.91
2023-05-25T05:25:46.666Z,21.86
2023-05-25T05:28:50.047Z,21.88
2023-05-25T05:31:52.806Z,21.94
2023-05-25T05:34:55.247Z,21.98
2023-05-25T05:38:17.560Z,22.04
2023-05-25T05:41:19.695Z,22.07
2023-05-25T05:44:27.740Z,22.16
2023-05-25T05:47:30.157Z,22.18
2023-05-25T05:50:32.422Z,22.17
2023-05-25T05:53:36.017Z,22.21
2023-05-25T05:56:38.913Z,22.23
2023-05-25T05:59:41.302Z,22.19
2023-05-25T06:02:43.632Z,21.93
2023-05-25T06:05:49.887Z,22.00
2023-05-25T06:08:54.018Z,22.03
2023-05-25T06:11:56.281Z,22.12
2023-05-25T06:14:58.492Z,22.21
2023-05-25T06:18:01.127Z,22.25
2023-05-25T06:21:03.518Z,22.26
2023-05-25T06:24:06.494Z,22.28
2023-05-25T06:27:09.370Z,22.16
2023-05-25T06:30:12.075Z,22.23
2023-05-25T06:33:14.402Z,22.29
2023-05-25T06:36:17.485Z,22.33
2023-05-25T06:39:20.888Z,22.33
2023-05-25T06:42:23.345Z,22.41
2023-05-25T06:45:29.561Z,22.50
2023-05-25T06:48:31.825Z,22.62
2023-05-25T06:51:33.885Z,22.71
2023-05-25T06:54:36.168Z,22.79
2023-05-25T06:57:38.325Z,22.83
2023-05-25T07:00:40.380Z,22.88
2023-05-25T07:03:43.034Z,22.87
2023-05-25T07:06:46.300Z,22.87
2023-05-25T07:09:48.815Z,22.90
2023-05-25T07:12:50.920Z,22.93
2023-05-25T07:15:53.047Z,22.93
2023-05-25T07:18:55.281Z,22.93
2023-05-25T07:21:57.309Z,22.95
2023-05-25T07:24:59.427Z,23.05
2023-05-25T07:28:01.534Z,23.18
2023-05-25T07:31:05.329Z,23.25
2023-05-25T07:34:07.349Z,23.26
2023-05-25T07:37:09.675Z,23.28
2023-05-25T07:40:12.315Z,23.28
2023-05-25T07:43:14.416Z,23.30
2023-05-25T07:46:17.639Z,23.35
2023-05-25T07:49:19.908Z,23.31
2023-05-25T07:52:21.942Z,23.40
2023-05-25T07:55:24.056Z,23.47
2023-05-25T07:58:26.161Z,23.51
2023-05-25T08:01:29.039Z,23.51
2023-05-25T08:04:31.605Z,23.49
2023-05-25T08:07:34.150Z,23.52
2023-05-25T08:10:36.532Z,23.55
2023-05-25T08:13:39.553Z,23.65
2023-05-25T08:16:41.773Z,23.71
2023-05-25T08:19:43.921Z,23.73
2023-05-25T08:22:46.021Z,23.72
2023-05-25T08:25:48.276Z,23.80
2023-05-25T08:28:50.267Z,23.88
2023-05-25T08:31:52.367Z,23.87
2023-05-25T08:34:54.446Z,23.83
2023-05-25T08:37:56.509Z,23.86
2023-05-25T08:41:06.493Z,23.95
2023-05-25T08:44:09.120Z,24.03
2023-05-25T08:47:12.424Z,24.08
2023-05-25T08:50:17.212Z,24.04
2023-05-25T08:53:21.059Z,24.09
2023-05-25T08:56:27.294Z,24.16
2023-05-25T08:59:35.515Z,24.28
2023-05-25T09:03:12.207Z,24.29
2023-05-25T09:06:14.642Z,24.29
2023-05-25T09:09:17.505Z,24.29
2023-05-25T09:12:22.275Z,24.33
2023-05-25T09:15:24.348Z,24.41
2023-05-25T09:18:28.122Z,24.54
2023-05-25T09:21:30.263Z,24.59
2023-05-25T09:24:33.112Z,24.57
2023-05-25T09:27:37.612Z,24.56
2023-05-25T09:30:39.747Z,24.65
2023-05-25T09:33:42.916Z,24.65
2023-05-25T09:36:45.141Z,24.68
2023-05-25T09:39:48.147Z,24.60
2023-05-25T09:42:50.971Z,24.53
2023-05-25T09:45:53.820Z,24.61
2023-05-25T09:48:55.910Z,24.59
2023-05-25T09:51:58.049Z,24.61
2023-05-25T09:55:02.140Z,24.61
2023-05-25T09:58:05.053Z,24.63
2023-05-25T10:01:07.773Z,24.65
2023-05-25T10:04:09.957Z,24.63
2023-05-25T10:07:13.658Z,24.60
2023-05-25T10:10:16.684Z,24.64
2023-05-25T10:13:25.543Z,24.68
2023-05-25T10:16:29.987Z,24.72
2023-05-25T10:19:37.895Z,24.74
2023-05-25T10:22:57.230Z,24.73
2023-05-25T10:26:02.314Z,24.75
2023-05-25T10:29:04.997Z,24.80
2023-05-25T10:32:09.118Z,24.74
2023-05-25T10:35:12.645Z,24.76
2023-05-25T10:38:15.573Z,24.79
2023-05-25T10:41:21.406Z,24.83
2023-05-25T10:44:25.270Z,24.91
2023-05-25T10:47:27.806Z,24.90
2023-05-25T10:50:35.600Z,24.95
2023-05-25T10:53:37.995Z,24.95
2023-05-25T10:57:10.801Z,25.09
2023-05-25T11:00:14.076Z,25.16
2023-05-25T11:03:20.875Z,25.17
2023-05-25T11:06:46.728Z,25.24
2023-05-25T11:09:59.533Z,25.33
2023-05-25T11:13:39.751Z,25.41
2023-05-25T11:16:43.806Z,25.45
2023-05-25T11:19:50.718Z,25.58
2023-05-25T11:22:53.880Z,25.60
2023-05-25T11:26:05.981Z,25.55
2023-05-25T11:29:16.147Z,25.64
2023-05-25T11:32:18.718Z,25.56
2023-05-25T11:35:21.927Z,25.42
2023-05-25T11:38:25.068Z,25.28
2023-05-25T11:41:29.461Z,25.22
2023-05-25T11:44:36.930Z,25.14
2023-05-25T11:47:39.114Z,25.16
2023-05-25T11:50:41.213Z,25.08
2023-05-25T11:53:45.234Z,25.11
2023-05-25T11:56:47.367Z,25.04
2023-05-25T12:00:02.772Z,25.02
2023-05-25T12:03:05.989Z,24.91
2023-05-25T12:06:09.750Z,24.84
2023-05-25T12:09:13.268Z,24.77
2023-05-25T12:12:15.920Z,24.71
2023-05-25T12:15:22.703Z,24.75
2023-05-25T12:18:24.862Z,24.69
2023-05-25T12:21:27.859Z,24.72
2023-05-25T12:24:30.986Z,24.75
2023-05-25T12:27:33.514Z,24.79
2023-05-25T12:30:35.656Z,24.88
2023-05-25T12:33:38.085Z,24.93
2023-05-25T12:36:52.195Z,25.02
2023-05-25T12:39:55.565Z,25.02
2023-05-25T12:42:58.155Z,25.07
2023-05-25T12:46:01.050Z,25.04
2023-05-25T12:49:04.808Z,25.17
2023-05-25T12:52:07.359Z,25.27
2023-05-25T12:55:28.958Z,25.38
2023-05-25T12:58:31.095Z,25.40
2023-05-25T13:01:34.248Z,25.48
2023-05-25T13:04:38.672Z,25.52
2023-05-25T13:07:42.639Z,25.55
2023-05-25T13:10:48.730Z,25.61
2023-05-25T13:13:51.754Z,25.60
2023-05-25T13:16:57.868Z,25.54
2023-05-25T13:20:00.769Z,25.61
2023-05-25T13:23:08.047Z,25.56
2023-05-25T13:26:10.741Z,25.50
2023-05-25T13:29:12.987Z,25.48
2023-05-25T13:32:16.658Z,25.46
2023-05-25T13:35:23.472Z,25.54
2023-05-25T13:38:25.884Z,25.59
2023-05-25T13:41:28.340Z,25.65
2023-05-25T13:44:30.464Z,25.75
2023-05-25T13:47:32.634Z,25.72
2023-05-25T13:50:34.830Z,25.85
2023-05-25T13:53:37.229Z,25.86
2023-05-25T13:56:40.198Z,25.88
2023-05-25T13:59:42.325Z,25.76
2023-05-25T14:02:44.560Z,25.51
2023-05-25T14:05:46.769Z,25.35
2023-05-25T14:08:49.258Z,25.27
2023-05-25T14:11:55.529Z,25.19
2023-05-25T14:14:57.728Z,25.16
2023-05-25T14:17:59.883Z,25.08
2023-05-25T14:21:01.990Z,25.02
2023-05-25T14:24:06.105Z,24.95
2023-05-25T14:27:08.311Z,24.85
2023-05-25T14:30:11.363Z,24.79
2023-05-25T14:33:15.490Z,24.72
2023-05-25T14:36:17.767Z,24.70
2023-05-25T14:39:19.946Z,24.68
2023-05-25T14:42:22.288Z,24.66
2023-05-25T14:45:24.420Z,24.65
2023-05-25T14:48:26.989Z,24.62
2023-05-25T14:51:29.077Z,24.67
2023-05-25T14:54:32.424Z,24.70
2023-05-25T14:57:35.668Z,24.63
2023-05-25T15:00:37.699Z,24.48
2023-05-25T15:03:40.129Z,24.46
2023-05-25T15:06:42.405Z,24.34
2023-05-25T15:09:45.438Z,24.33
2023-05-25T15:12:47.552Z,24.31
2023-05-25T15:15:56.365Z,24.29
2023-05-25T15:18:58.953Z,24.26
2023-05-25T15:22:01.548Z,24.22
2023-05-25T15:25:04.493Z,24.27
2023-05-25T15:28:07.218Z,24.35
2023-05-25T15:31:09.370Z,24.35
2023-05-25T15:34:11.564Z,24.49
2023-05-25T15:37:13.728Z,24.52
2023-05-25T15:40:16.128Z,24.46
2023-05-25T15:43:18.310Z,24.34
2023-05-25T15:46:22.074Z,24.30
2023-05-25T15:49:24.365Z,24.25
2023-05-25T15:52:26.492Z,24.21
2023-05-25T15:55:28.775Z,24.13
2023-05-25T15:58:34.681Z,24.06
2023-05-25T16:01:37.070Z,23.88
2023-05-25T16:04:39.221Z,23.85
2023-05-25T16:07:41.370Z,23.71
2023-05-25T16:10:44.429Z,23.66
2023-05-25T16:13:46.514Z,23.60
2023-05-25T16:16:48.705Z,23.51
2023-05-25T16:19:51.350Z,23.51
2023-05-25T16:22:53.541Z,23.40
2023-05-25T16:25:55.668Z,23.39
2023-05-25T16:28:57.889Z,23.33
2023-05-25T16:32:00.090Z,23.25
2023-05-25T16:35:02.352Z,23.26
2023-05-25T16:38:04.571Z,23.12
2023-05-25T16:41:06.697Z,23.17
2023-05-25T16:44:11.017Z,23.11
2023-05-25T16:47:14.138Z,23.08
2023-05-25T16:50:16.623Z,23.05
2023-05-25T16:53:18.714Z,23.04
2023-05-25T16:56:21.664Z,23.01
2023-05-25T16:59:23.800Z,23.01
2023-05-25T17:02:26.376Z,23.00
2023-05-25T17:05:30.780Z,22.96
2023-05-25T17:08:33.004Z,22.95
2023-05-25T17:11:35.005Z,22.92
2023-05-25T17:14:37.319Z,22.89
2023-05-25T17:17:39.462Z,22.85
2023-05-25T17:20:41.691Z,22.87
2023-05-25T17:23:44.019Z,22.82
2023-05-25T17:26:46.969Z,22.82
2023-05-25T17:29:50.151Z,22.80
2023-05-25T17:32:52.330Z,22.80
2023-05-25T17:35:54.514Z,22.75
2023-05-25T17:38:56.621Z,22.71
2023-05-25T17:42:00.615Z,22.70
2023-05-25T17:45:02.876Z,22.71
2023-05-25T17:48:07.021Z,22.71
2023-05-25T17:51:09.258Z,22.71
2023-05-25T17:54:15.782Z,22.68
2023-05-25T17:57:18.890Z,22.59
2023-05-25T18:00:23.239Z,22.56
2023-05-25T18:03:28.208Z,22.46
2023-05-25T18:06:30.674Z,22.40
2023-05-25T18:09:32.836Z,22.43
2023-05-25T18:12:35.090Z,22.41
2023-05-25T18:15:37.308Z,22.43
2023-05-25T18:18:40.677Z,22.48
2023-05-25T18:21:42.874Z,22.51
2023-05-25T18:24:44.962Z,22.54
2023-05-25T18:27:48.030Z,22.55
2023-05-25T18:30:50.927Z,22.50
2023-05-25T18:33:53.148Z,22.43
2023-05-25T18:36:55.322Z,22.41
2023-05-25T18:39:57.374Z,22.37
2023-05-25T18:42:59.466Z,22.36
2023-05-25T18:46:01.650Z,22.32
2023-05-25T18:49:04.454Z,22.32
2023-05-25T18:52:08.359Z,22.30
2023-05-25T18:55:11.956Z,22.31
2023-05-25T18:58:14.258Z,22.32
2023-05-25T19:01:16.486Z,22.34
2023-05-25T19:04:18.740Z,22.37
2023-05-25T19:07:21.203Z,22.37
2023-05-25T19:10:23.360Z,22.39
2023-05-25T19:13:25.491Z,22.41
2023-05-25T19:16:27.624Z,22.40
2023-05-25T19:19:29.708Z,22.37
2023-05-25T19:22:32.129Z,22.30
2023-05-25T19:25:34.274Z,22.29
2023-05-25T19:28:36.225Z,22.33
2023-05-25T19:31:38.375Z,22.33
2023-05-25T19:34:41.315Z,22.33
2023-05-25T19:37:43.581Z,22.33
2023-05-25T19:40:45.881Z,22.32
2023-05-25T19:43:48.049Z,22.27
2023-05-25T19:46:50.338Z,22.29
2023-05-25T19:49:52.414Z,22.29
2023-05-25T19:52:54.530Z,22.30
2023-05-25T19:55:56.608Z,22.30
2023-05-25T19:58:58.624Z,22.31
2023-05-25T20:02:00.807Z,22.28
2023-05-25T20:05:02.984Z,22.30
2023-05-25T20:08:05.110Z,22.31
2023-05-25T20:11:07.463Z,22.33
2023-05-25T20:14:09.715Z,22.34
2023-05-25T20:17:11.771Z,22.33
2023-05-25T20:20:15.175Z,22.30
2023-05-25T20:23:17.321Z,22.31
2023-05-25T20:26:20.978Z,22.22
2023-05-25T20:29:26.636Z,22.25
2023-05-25T20:32:29.137Z,22.26
2023-05-25T20:35:32.903Z,22.23
2023-05-25T20:38:37.203Z,22.25
2023-05-25T20:41:39.373Z,22.22
2023-05-25T20:44:43.651Z,22.19
2023-05-25T20:47:47.950Z,22.20
2023-05-25T20:50:50.041Z,22.18
2023-05-25T20:53:52.131Z,22.18
2023-05-25T20:56:55.268Z,22.20
2023-05-25T21:00:00.225Z,22.21
2023-05-25T21:03:05.976Z,22.20
2023-05-25T21:06:09.559Z,22.18
2023-05-25T21:09:11.776Z,22.15
2023-05-25T21:12:13.912Z,22.11
2023-05-25T21:15:16.319Z,21.97
2023-05-25T21:18:18.349Z,21.96
2023-05-25T21:21:20.699Z,22.03
2023-05-25T21:24:22.795Z,22.03
2023-05-25T21:27:24.889Z,22.04
2023-05-25T21:30:26.966Z,21.91
2023-05-25T21:33:31.013Z,21.75
2023-05-25T21:36:33.263Z,21.73
2023-05-25T21:39:36.150Z,21.64
2023-05-25T21:42:38.227Z,21.62
2023-05-25T21:45:40.219Z,21.75
2023-05-25T21:48:42.337Z,21.83
2023-05-25T21:51:44.486Z,21.90
2023-05-25T21:54:46.673Z,21.94
2023-05-25T21:57:48.751Z,21.99
2023-05-25T22:00:50.988Z,21.97
2023-05-25T22:03:53.165Z,22.02
2023-05-25T22:06:56.898Z,22.00
2023-05-25T22:09:59.062Z,22.02
2023-05-25T22:13:02.063Z,21.99
2023-05-25T22:16:04.074Z,21.98
2023-05-25T22:19:06.215Z,21.96
2023-05-25T22:22:08.243Z,21.92
2023-05-25T22:25:11.308Z,21.85
2023-05-25T22:28:14.558Z,21.90
2023-05-25T22:31:16.681Z,21.92
2023-05-25T22:34:18.736Z,21.91
2023-05-25T22:37:21.162Z,21.96
2023-05-25T22:40:23.267Z,21.97
2023-05-25T22:43:27.153Z,21.96
2023-05-25T22:46:29.266Z,21.97
2023-05-25T22:49:31.332Z,21.99
2023-05-25T22:52:33.550Z,21.94
2023-05-25T22:55:35.617Z,21.80
2023-05-25T22:58:37.847Z,21.78
2023-05-25T23:01:39.939Z,21.80
2023-05-25T23:04:42.161Z,21.82
2023-05-25T23:07:44.308Z,21.85
2023-05-25T23:10:46.381Z,21.76
2023-05-25T23:13:48.547Z,21.73
2023-05-25T23:16:50.672Z,21.75
2023-05-25T23:19:53.750Z,21.76
2023-05-25T23:22:56.094Z,21.74
2023-05-25T23:25:58.165Z,21.70
2023-05-25T23:29:00.295Z,21.73
2023-05-25T23:32:02.600Z,21.78
2023-05-25T23:35:05.191Z,21.84
2023-05-25T23:38:07.251Z,21.89
2023-05-25T23:41:09.461Z,21.89
2023-05-25T23:44:11.603Z,21.93
2023-05-25T23:47:13.694Z,21.92
2023-05-25T23:50:16.264Z,21.91
2023-05-25T23:53:18.276Z,21.89
2023-05-25T23:56:22.009Z,21.80
2023-05-25T23:59:23.977Z,21.68
